createdAt,value
2022-09-09T00:02:23.936Z,100128.84
2022-09-09T00:05:29.467Z,100136.66
2022-09-09T00:08:25.726Z,100127.13
2022-09-09T00:11:13.826Z,100132.31
2022-09-09T00:14:03.840Z,100129.63
2022-09-09T00:16:56.167Z,100129.66
2022-09-09T00:20:17.281Z,100132.25
2022-09-09T00:23:05.112Z,100131.44
2022-09-09T00:26:17.320Z,100142.69
2022-09-09T00:29:15.695Z,100141.78
2022-09-09T00:32:12.135Z,100150.66
2022-09-09T00:35:02.769Z,100147.25
2022-09-09T00:37:51.037Z,100142.81
2022-09-09T00:40:43.212Z,100139.22
2022-09-09T00:43:33.218Z,100135.66
2022-09-09T00:46:41.978Z,100137.31
2022-09-09T00:49:44.497Z,100140.78
2022-09-09T00:53:17.660Z,100140.81
2022-09-09T00:56:12.758Z,100119.91
2022-09-09T00:59:14.509Z,100132.06
2022-09-09T01:01:59.879Z,100132.03
2022-09-09T01:04:44.962Z,100139.78
2022-09-09T01:07:30.048Z,100138.06
2022-09-09T01:10:37.048Z,100134.66
2022-09-09T01:13:26.048Z,100136.31
2022-09-09T01:16:12.494Z,100133.72
2022-09-09T01:19:00.637Z,100131.97
2022-09-09T01:22:11.820Z,100131.88
2022-09-09T01:25:27.985Z,100134.53
2022-09-09T01:28:19.384Z,100134.53
2022-09-09T01:31:07.519Z,100131.09
2022-09-09T01:33:52.877Z,100131.97
2022-09-09T01:36:40.802Z,100127.72
2022-09-09T01:39:27.270Z,100130.38
2022-09-09T01:42:15.875Z,100133.94
2022-09-09T01:45:01.025Z,100141.88
2022-09-09T01:47:46.931Z,100137.50
2022-09-09T01:50:32.254Z,100128.81
2022-09-09T01:53:19.328Z,100132.31
2022-09-09T01:56:22.609Z,100128.88
2022-09-09T01:59:23.688Z,100128.88
2022-09-09T02:02:56.567Z,100128.06
2022-09-09T02:05:47.772Z,100122.09
2022-09-09T02:08:50.479Z,100132.53
2022-09-09T02:11:35.855Z,100121.28
2022-09-09T02:14:28.447Z,100116.03
2022-09-09T02:17:18.032Z,100126.44
2022-09-09T02:20:08.600Z,100121.28
2022-09-09T02:22:54.755Z,100120.31
2022-09-09T02:25:42.310Z,100116.94
2022-09-09T02:28:30.764Z,100122.03
2022-09-09T02:31:19.610Z,100127.22
2022-09-09T02:34:07.540Z,100121.91
2022-09-09T02:36:56.001Z,100130.59
2022-09-09T02:39:40.943Z,100125.25
2022-09-09T02:42:26.188Z,100129.66
2022-09-09T02:45:14.598Z,100132.25
2022-09-09T02:48:18.128Z,100131.50
2022-09-09T02:51:17.160Z,100132.25
2022-09-09T02:54:16.961Z,100132.31
2022-09-09T02:57:12.570Z,100125.41
2022-09-09T02:59:59.532Z,100133.19
2022-09-09T03:02:44.451Z,100144.47
2022-09-09T03:05:29.252Z,100140.19
2022-09-09T03:08:14.403Z,100136.81
2022-09-09T03:11:00.641Z,100141.13
2022-09-09T03:13:46.032Z,100143.75
2022-09-09T03:16:31.023Z,100141.13
2022-09-09T03:19:16.340Z,100143.78
2022-09-09T03:22:01.271Z,100143.81
2022-09-09T03:24:46.510Z,100140.34
2022-09-09T03:27:31.609Z,100133.34
2022-09-09T03:30:16.789Z,100136.88
2022-09-09T03:33:01.758Z,100139.53
2022-09-09T03:35:47.481Z,100149.06
2022-09-09T03:38:32.719Z,100135.19
2022-09-09T03:41:17.899Z,100131.69
2022-09-09T03:44:03.049Z,100140.28
2022-09-09T03:46:48.029Z,100129.81
2022-09-09T03:49:33.369Z,100126.31
2022-09-09T03:52:23.398Z,100130.63
2022-09-09T03:55:09.261Z,100129.66
2022-09-09T03:57:54.329Z,100130.63
2022-09-09T04:00:39.645Z,100127.16
2022-09-09T04:03:28.175Z,100129.84
2022-09-09T04:06:14.796Z,100145.56
2022-09-09T04:08:59.761Z,100152.59
2022-09-09T04:11:44.723Z,100150.91
2022-09-09T04:14:29.531Z,100142.25
2022-09-09T04:17:14.830Z,100141.44
2022-09-09T04:19:59.834Z,100138.00
2022-09-09T04:22:45.011Z,100138.78
2022-09-09T04:25:29.843Z,100135.28
2022-09-09T04:28:16.263Z,100134.50
2022-09-09T04:31:10.315Z,100127.53
2022-09-09T04:33:55.485Z,100130.97
2022-09-09T04:36:40.304Z,100125.75
2022-09-09T04:39:25.671Z,100129.19
2022-09-09T04:42:10.651Z,100136.09
2022-09-09T04:44:55.622Z,100131.84
2022-09-09T04:47:40.960Z,100139.66
2022-09-09T04:50:25.906Z,100145.72
2022-09-09T04:53:11.135Z,100139.75
2022-09-09T04:56:22.270Z,100148.34
2022-09-09T04:59:07.489Z,100134.47
2022-09-09T05:01:52.858Z,100150.13
2022-09-09T05:04:38.030Z,100141.41
2022-09-09T05:07:22.972Z,100145.75
2022-09-09T05:10:08.464Z,100145.78
2022-09-09T05:12:54.652Z,100148.38
2022-09-09T05:15:40.071Z,100153.59
2022-09-09T05:18:24.870Z,100154.38
2022-09-09T05:21:10.589Z,100149.16
2022-09-09T05:23:55.904Z,100156.16
2022-09-09T05:26:41.005Z,100150.03
2022-09-09T05:29:26.483Z,100150.03
2022-09-09T05:32:15.238Z,100151.81
2022-09-09T05:35:03.727Z,100149.19
2022-09-09T05:37:48.841Z,100155.31
2022-09-09T05:40:34.093Z,100150.06
2022-09-09T05:43:20.391Z,100143.06
2022-09-09T05:46:12.207Z,100154.28
2022-09-09T05:48:57.086Z,100154.25
2022-09-09T05:51:42.320Z,100153.38
2022-09-09T05:54:27.308Z,100147.16
2022-09-09T05:57:12.158Z,100149.69
2022-09-09T05:59:57.034Z,100152.22
2022-09-09T06:02:41.838Z,100150.56
2022-09-09T06:05:27.280Z,100148.81
2022-09-09T06:08:12.694Z,100163.59
2022-09-09T06:11:09.044Z,100156.50
2022-09-09T06:13:54.346Z,100152.78
2022-09-09T06:16:39.329Z,100156.75
2022-09-09T06:19:24.611Z,100146.19
2022-09-09T06:22:10.008Z,100147.81
2022-09-09T06:24:55.038Z,100139.69
2022-09-09T06:27:40.274Z,100136.91
2022-09-09T06:30:25.798Z,100132.63
2022-09-09T06:33:11.403Z,100138.75
2022-09-09T06:35:56.885Z,100130.03
2022-09-09T06:38:43.326Z,100141.53
2022-09-09T06:41:30.645Z,100146.75
2022-09-09T06:44:15.726Z,100143.38
2022-09-09T06:47:00.567Z,100157.38
2022-09-09T06:49:48.352Z,100154.75
2022-09-09T06:52:33.424Z,100148.63
2022-09-09T06:55:18.288Z,100153.84
2022-09-09T06:58:03.148Z,100160.75
2022-09-09T07:00:48.366Z,100158.16
2022-09-09T07:03:33.816Z,100162.44
2022-09-09T07:06:31.405Z,100163.41
2022-09-09T07:09:17.237Z,100166.78
2022-09-09T07:12:02.503Z,100172.09
2022-09-09T07:14:47.616Z,100170.19
2022-09-09T07:17:32.543Z,100161.41
2022-09-09T07:20:17.626Z,100173.50
2022-09-09T07:23:02.842Z,100164.81
2022-09-09T07:25:47.802Z,100158.69
2022-09-09T07:28:32.895Z,100157.69
2022-09-09T07:31:21.170Z,100162.91
2022-09-09T07:34:06.863Z,100174.94
2022-09-09T07:36:52.052Z,100169.72
2022-09-09T07:39:37.405Z,100164.50
2022-09-09T07:42:22.405Z,100160.91
2022-09-09T07:45:07.525Z,100161.75
2022-09-09T07:47:52.554Z,100157.31
2022-09-09T07:50:37.510Z,100158.13
2022-09-09T07:53:22.409Z,100163.16
2022-09-09T07:56:11.507Z,100161.31
2022-09-09T07:58:58.167Z,100153.25
2022-09-09T08:01:50.162Z,100153.91
2022-09-09T08:04:35.224Z,100145.16
2022-09-09T08:07:20.642Z,100145.66
2022-09-09T08:10:06.421Z,100145.13
2022-09-09T08:13:14.709Z,100139.25
2022-09-09T08:16:05.002Z,100127.47
2022-09-09T08:18:51.206Z,100129.81
2022-09-09T08:21:39.146Z,100100.66
2022-09-09T08:24:24.146Z,100093.97
2022-09-09T08:27:09.077Z,100131.88
2022-09-09T08:29:54.014Z,100132.78
2022-09-09T08:32:40.941Z,100143.38
2022-09-09T08:35:28.784Z,100142.09
2022-09-09T08:38:14.152Z,100163.19
2022-09-09T08:41:25.345Z,100145.31
2022-09-09T08:44:23.941Z,100130.56
2022-09-09T08:47:37.156Z,100163.91
2022-09-09T08:50:37.462Z,100157.00
2022-09-09T08:53:29.737Z,100161.94
2022-09-09T08:56:19.475Z,100175.69
2022-09-09T08:59:05.245Z,100178.34
2022-09-09T09:02:23.134Z,100180.25
2022-09-09T09:05:30.108Z,100174.75
2022-09-09T09:08:26.399Z,100187.91
2022-09-09T09:11:11.327Z,100177.59
2022-09-09T09:14:08.010Z,100193.19
2022-09-09T09:17:00.833Z,100187.38
2022-09-09T09:19:47.826Z,100150.81
2022-09-09T09:22:46.723Z,100151.28
2022-09-09T09:25:41.851Z,100142.56
2022-09-09T09:28:33.021Z,100126.88
2022-09-09T09:31:20.350Z,100095.25
2022-09-09T09:34:05.710Z,100103.34
2022-09-09T09:36:59.464Z,100140.28
2022-09-09T09:42:51.922Z,100093.22
2022-09-09T09:45:55.388Z,100115.69
2022-09-09T09:48:57.228Z,100126.56
2022-09-09T09:51:42.605Z,100150.13
2022-09-09T09:54:30.636Z,100121.16
2022-09-09T09:57:17.813Z,100119.16
2022-09-09T10:00:15.497Z,100120.13
2022-09-09T10:03:01.601Z,100142.88
2022-09-09T10:05:47.429Z,100131.84
2022-09-09T10:08:35.607Z,100101.41
2022-09-09T10:11:52.916Z,100135.28
2022-09-09T10:14:52.807Z,100115.69
2022-09-09T10:18:15.844Z,100118.41
2022-09-09T10:21:13.469Z,100114.47
2022-09-09T10:24:20.079Z,100142.22
2022-09-09T10:27:30.304Z,100150.28
2022-09-09T10:30:23.188Z,100146.56
2022-09-09T10:33:42.198Z,100150.84
2022-09-09T10:36:28.201Z,100158.28
2022-09-09T10:39:42.170Z,100131.56
2022-09-09T10:42:32.438Z,100150.97
2022-09-09T10:45:40.966Z,100136.28
2022-09-09T10:48:44.455Z,100119.34
2022-09-09T10:51:38.331Z,100088.88
2022-09-09T10:55:01.259Z,100092.78
2022-09-09T10:57:49.143Z,100117.28
2022-09-09T11:00:41.189Z,100113.56
2022-09-09T11:03:30.024Z,100068.84
2022-09-09T11:06:21.995Z,100110.00
2022-09-09T11:09:16.192Z,100063.00
2022-09-09T11:12:03.590Z,100086.19
2022-09-09T11:15:00.415Z,100078.47
2022-09-09T11:17:50.221Z,100104.13
2022-09-09T11:20:35.560Z,100119.69
2022-09-09T11:23:28.579Z,100110.19
2022-09-09T11:26:24.959Z,100092.88
2022-09-09T11:29:21.537Z,100133.47
2022-09-09T11:32:31.407Z,100103.81
2022-09-09T11:35:39.317Z,100048.31
2022-09-09T11:38:30.218Z,100057.25
2022-09-09T11:41:21.539Z,100018.69
2022-09-09T11:44:18.744Z,100040.97
2022-09-09T11:47:03.993Z,100016.56
2022-09-09T11:49:51.417Z,100020.47
2022-09-09T11:52:39.935Z,99965.50
2022-09-09T11:55:33.222Z,100001.66
2022-09-09T11:58:19.573Z,99981.53
2022-09-09T12:01:28.021Z,100039.63
2022-09-09T12:04:21.960Z,100034.44
2022-09-09T12:07:10.664Z,100008.94
2022-09-09T12:10:17.370Z,100032.66
2022-09-09T12:13:22.484Z,100000.72
2022-09-09T12:16:29.118Z,100027.50
2022-09-09T12:19:17.325Z,100031.06
2022-09-09T12:22:27.576Z,100029.69
2022-09-09T12:25:27.550Z,100058.03
2022-09-09T12:28:25.448Z,100060.84
2022-09-09T12:31:36.714Z,99972.72
2022-09-09T12:34:34.626Z,99984.91
2022-09-09T12:37:41.901Z,99970.69
2022-09-09T12:40:29.599Z,99983.69
2022-09-09T12:43:22.739Z,100006.38
2022-09-09T12:46:14.944Z,100003.81
2022-09-09T12:49:00.034Z,99992.25
2022-09-09T12:51:45.369Z,99991.34
2022-09-09T12:54:30.476Z,100026.19
2022-09-09T12:57:16.207Z,100035.72
2022-09-09T13:00:16.820Z,100072.03
2022-09-09T13:03:15.550Z,100142.31
2022-09-09T13:06:12.813Z,100184.50
2022-09-09T13:09:00.670Z,100174.88
2022-09-09T13:11:56.213Z,100167.34
2022-09-09T13:14:45.300Z,100155.16
2022-09-09T13:17:30.360Z,100112.09
2022-09-09T13:20:18.719Z,100119.97
2022-09-09T13:23:03.707Z,100055.28
2022-09-09T13:26:03.364Z,100028.53
2022-09-09T13:28:48.607Z,99985.53
2022-09-09T13:31:37.772Z,100003.53
2022-09-09T13:34:25.883Z,99983.25
2022-09-09T13:37:24.629Z,100028.41
2022-09-09T13:40:21.698Z,99992.63
2022-09-09T13:43:21.063Z,99969.44
2022-09-09T13:46:24.150Z,99975.91
2022-09-09T13:49:09.301Z,99968.78
2022-09-09T13:52:11.766Z,99966.81
2022-09-09T13:54:56.949Z,99972.66
2022-09-09T13:57:55.191Z,100020.28
2022-09-09T14:00:39.947Z,99937.31
2022-09-09T14:03:24.949Z,99949.91
2022-09-09T14:06:11.903Z,99967.81
2022-09-09T14:08:56.919Z,99981.84
2022-09-09T14:11:42.431Z,99972.38
2022-09-09T14:14:27.692Z,99971.00
2022-09-09T14:17:12.449Z,99976.44
2022-09-09T14:19:58.232Z,99980.66
2022-09-09T14:22:43.624Z,99973.06
2022-09-09T14:25:28.992Z,99988.25
2022-09-09T14:28:14.808Z,99989.16
2022-09-09T14:31:01.734Z,99986.91
2022-09-09T14:33:47.374Z,100014.19
2022-09-09T14:36:32.621Z,100016.84
2022-09-09T14:39:17.557Z,100051.28
2022-09-09T14:42:02.369Z,100046.31
2022-09-09T14:44:47.876Z,100040.31
2022-09-09T14:47:32.824Z,100043.63
2022-09-09T14:50:18.853Z,100070.53
2022-09-09T14:53:03.792Z,100035.75
2022-09-09T14:55:48.699Z,100053.81
2022-09-09T14:58:33.937Z,100027.19
2022-09-09T15:01:20.749Z,100022.91
2022-09-09T15:04:07.030Z,100040.38
2022-09-09T15:06:52.124Z,100037.81
2022-09-09T15:09:37.062Z,100060.72
2022-09-09T15:12:22.376Z,100031.94
2022-09-09T15:15:07.639Z,100042.31
2022-09-09T15:17:52.417Z,100061.44
2022-09-09T15:20:40.267Z,100068.41
2022-09-09T15:23:25.733Z,100066.38
2022-09-09T15:26:11.618Z,100069.41
2022-09-09T15:28:57.212Z,100078.50
2022-09-09T15:31:42.300Z,100070.50
2022-09-09T15:34:27.151Z,100086.25
2022-09-09T15:37:12.275Z,100092.41
2022-09-09T15:39:57.338Z,100081.63
2022-09-09T15:42:42.876Z,100095.16
2022-09-09T15:45:28.284Z,100065.91
2022-09-09T15:48:13.182Z,100105.38
2022-09-09T15:51:10.945Z,100088.84
2022-09-09T15:54:16.090Z,100082.56
2022-09-09T15:57:03.311Z,100081.25
2022-09-09T15:59:48.471Z,100065.13
2022-09-09T16:02:33.379Z,100066.84
2022-09-09T16:05:18.158Z,100082.88
2022-09-09T16:08:03.142Z,100092.53
2022-09-09T16:10:48.015Z,100083.75
2022-09-09T16:13:40.200Z,100063.19
2022-09-09T16:16:28.483Z,100101.75
2022-09-09T16:19:13.831Z,100082.59
2022-09-09T16:21:59.037Z,100096.72
2022-09-09T16:24:43.903Z,100107.00
2022-09-09T16:27:29.405Z,100117.59
2022-09-09T16:30:14.654Z,100078.81
2022-09-09T16:32:59.563Z,100095.59
2022-09-09T16:35:45.162Z,100108.72
2022-09-09T16:38:30.409Z,100130.91
2022-09-09T16:41:15.446Z,100124.38
2022-09-09T16:44:05.619Z,100136.66
2022-09-09T16:46:50.844Z,100128.72
2022-09-09T16:49:35.613Z,100145.84
2022-09-09T16:52:20.797Z,100153.34
2022-09-09T16:55:06.187Z,100170.44
2022-09-09T16:57:51.215Z,100176.69
2022-09-09T17:00:36.134Z,100179.66
2022-09-09T17:03:21.218Z,100175.50
2022-09-09T17:06:13.738Z,100176.41
2022-09-09T17:09:00.837Z,100186.91
2022-09-09T17:11:46.776Z,100183.66
2022-09-09T17:14:31.610Z,100188.88
2022-09-09T17:17:31.215Z,100191.94
2022-09-09T17:20:17.497Z,100195.19
2022-09-09T17:23:02.593Z,100208.38
2022-09-09T17:25:57.374Z,100195.50
2022-09-09T17:28:44.358Z,100199.78
2022-09-09T17:31:30.895Z,100205.09
2022-09-09T17:34:15.982Z,100197.25
2022-09-09T17:37:01.051Z,100199.00
2022-09-09T17:39:46.231Z,100200.75
2022-09-09T17:42:31.616Z,100195.50
2022-09-09T17:45:16.593Z,100202.59
2022-09-09T17:48:01.703Z,100211.31
2022-09-09T17:50:46.683Z,100221.84
2022-09-09T17:53:36.952Z,100215.84
2022-09-09T17:56:23.605Z,100207.13
2022-09-09T17:59:10.565Z,100215.03
2022-09-09T18:01:55.731Z,100213.41
2022-09-09T18:04:41.173Z,100216.91
2022-09-09T18:07:26.002Z,100212.53
2022-09-09T18:10:10.859Z,100215.13
2022-09-09T18:12:55.649Z,100215.09
2022-09-09T18:15:49.365Z,100216.75
2022-09-09T18:18:35.162Z,100213.28
2022-09-09T18:21:20.462Z,100208.78
2022-09-09T18:24:07.158Z,100211.38
2022-09-09T18:26:52.197Z,100215.78
2022-09-09T18:29:37.339Z,100221.84
2022-09-09T18:32:22.835Z,100219.25
2022-09-09T18:35:08.237Z,100226.22
2022-09-09T18:37:53.350Z,100235.81
2022-09-09T18:40:38.597Z,100237.56
2022-09-09T18:43:23.646Z,100233.34
2022-09-09T18:46:09.731Z,100234.16
2022-09-09T18:48:55.533Z,100248.06
2022-09-09T18:51:43.055Z,100242.09
2022-09-09T18:54:29.893Z,100251.94
2022-09-09T18:57:15.375Z,100249.59
2022-09-09T19:00:00.625Z,100254.81
2022-09-09T19:02:49.144Z,100255.63
2022-09-09T19:05:34.437Z,100252.13
2022-09-09T19:08:21.015Z,100246.91
2022-09-09T19:11:09.186Z,100256.47
2022-09-09T19:14:00.477Z,100248.63
2022-09-09T19:16:46.442Z,100246.91
2022-09-09T19:19:33.166Z,100247.00
2022-09-09T19:22:18.718Z,100240.06
2022-09-09T19:25:04.377Z,100251.41
2022-09-09T19:27:49.957Z,100258.28
2022-09-09T19:30:35.270Z,100260.91
2022-09-09T19:33:20.249Z,100267.06
2022-09-09T19:36:13.590Z,100266.28
2022-09-09T19:38:59.355Z,100261.16
2022-09-09T19:41:45.356Z,100254.19
2022-09-09T19:44:30.271Z,100253.28
2022-09-09T19:47:15.734Z,100268.09
2022-09-09T19:50:00.689Z,100267.31
2022-09-09T19:52:45.638Z,100262.13
2022-09-09T19:55:30.511Z,100259.53
2022-09-09T19:58:15.362Z,100259.63
2022-09-09T20:01:12.075Z,100264.00
2022-09-09T20:04:00.859Z,100261.38
2022-09-09T20:06:46.171Z,100259.69
2022-09-09T20:09:31.239Z,100267.50
2022-09-09T20:12:16.223Z,100267.53
2022-09-09T20:15:00.971Z,100271.84
2022-09-09T20:17:45.808Z,100275.31
2022-09-09T20:20:30.759Z,100275.28
2022-09-09T20:23:16.007Z,100277.03
2022-09-09T20:26:04.763Z,100274.44
2022-09-09T20:28:51.867Z,100276.19
2022-09-09T20:31:39.251Z,100286.66
2022-09-09T20:34:24.390Z,100281.47
2022-09-09T20:37:09.234Z,100278.91
2022-09-09T20:39:54.275Z,100279.78
2022-09-09T20:42:39.623Z,100278.94
2022-09-09T20:45:24.867Z,100281.53
2022-09-09T20:48:09.907Z,100282.47
2022-09-09T20:50:55.055Z,100277.25
2022-09-09T20:53:40.176Z,100282.44
2022-09-09T20:56:31.161Z,100284.22
2022-09-09T20:59:19.641Z,100282.47
2022-09-09T21:02:04.714Z,100283.38
2022-09-09T21:04:50.200Z,100273.84
2022-09-09T21:07:35.405Z,100286.06
2022-09-09T21:10:20.262Z,100284.34
2022-09-09T21:13:05.585Z,100293.13
2022-09-09T21:15:51.908Z,100287.94
2022-09-09T21:18:37.398Z,100294.03
2022-09-09T21:21:22.649Z,100292.34
2022-09-09T21:24:07.827Z,100293.22
2022-09-09T21:26:53.034Z,100288.84
2022-09-09T21:29:37.935Z,100282.81
2022-09-09T21:32:22.756Z,100290.59
2022-09-09T21:35:08.047Z,100295.88
2022-09-09T21:37:54.089Z,100296.75
2022-09-09T21:40:39.867Z,100300.22
2022-09-09T21:43:24.744Z,100293.25
2022-09-09T21:46:11.581Z,100293.31
2022-09-09T21:48:58.168Z,100293.34
2022-09-09T21:51:43.278Z,100296.84
2022-09-09T21:54:29.860Z,100295.09
2022-09-09T21:57:15.005Z,100294.22
2022-09-09T22:00:00.282Z,100295.06
2022-09-09T22:02:45.870Z,100287.25
2022-09-09T22:05:31.567Z,100295.06
2022-09-09T22:08:17.120Z,100298.53
2022-09-09T22:11:10.049Z,100293.34
2022-09-09T22:13:55.036Z,100306.38
2022-09-09T22:16:39.759Z,100307.22
2022-09-09T22:19:24.768Z,100302.91
2022-09-09T22:22:09.596Z,100307.22
2022-09-09T22:24:54.443Z,100305.50
2022-09-09T22:27:39.369Z,100305.53
2022-09-09T22:30:24.204Z,100304.63
2022-09-09T22:33:08.949Z,100310.75
2022-09-09T22:35:54.482Z,100309.88
2022-09-09T22:38:39.767Z,100315.06
2022-09-09T22:41:25.322Z,100318.53
2022-09-09T22:44:10.454Z,100318.53
2022-09-09T22:46:56.002Z,100320.25
2022-09-09T22:49:41.111Z,100322.06
2022-09-09T22:52:27.600Z,100329.91
2022-09-09T22:55:12.459Z,100322.06
2022-09-09T22:57:57.552Z,100318.63
2022-09-09T23:00:42.841Z,100321.22
2022-09-09T23:03:30.560Z,100314.34
2022-09-09T23:06:22.550Z,100322.13
2022-09-09T23:09:09.644Z,100317.81
2022-09-09T23:11:54.586Z,100319.56
2022-09-09T23:14:39.594Z,100310.03
2022-09-09T23:17:24.878Z,100306.53
2022-09-09T23:20:09.962Z,100310.00
2022-09-09T23:22:55.085Z,100308.31
2022-09-09T23:25:40.390Z,100309.16
2022-09-09T23:28:25.770Z,100307.41
2022-09-09T23:31:12.567Z,100308.28
2022-09-09T23:33:59.547Z,100317.81
2022-09-09T23:36:44.857Z,100317.78
2022-09-09T23:39:29.767Z,100312.59
2022-09-09T23:42:14.806Z,100310.81
2022-09-09T23:44:59.816Z,100304.69
2022-09-09T23:47:44.797Z,100300.38
2022-09-09T23:50:29.799Z,100301.25
2022-09-09T23:53:14.537Z,100308.22
2022-09-09T23:55:59.501Z,100304.72
2022-09-09T23:58:44.278Z,100304.69
